createdAt,value
2018-04-23T00:00:30.284Z,0
2018-04-23T00:01:40.437Z,0
2018-04-23T00:02:50.329Z,0
2018-04-23T00:04:00.180Z,0
2018-04-23T00:05:10.334Z,0
2018-04-23T00:06:20.226Z,0
2018-04-23T00:07:30.419Z,0
2018-04-23T00:08:40.627Z,0
2018-04-23T00:09:50.538Z,0
2018-04-23T00:11:00.423Z,0
2018-04-23T00:12:10.566Z,0
2018-04-23T00:13:19.992Z,0
2018-04-23T00:14:29.913Z,0
2018-04-23T00:15:39.821Z,0
2018-04-23T00:16:49.977Z,0
2018-04-23T00:18:00.112Z,0
2018-04-23T00:19:10.381Z,0
2018-04-23T00:20:20.520Z,0
2018-04-23T00:21:30.645Z,0
2018-04-23T00:22:40.917Z,0
2018-04-23T00:23:51.206Z,0
2018-04-23T00:25:01.483Z,0
2018-04-23T00:26:11.722Z,0
2018-04-23T00:27:21.895Z,0
2018-04-23T00:28:32.051Z,0
2018-04-23T00:29:42.251Z,0
2018-04-23T00:30:52.482Z,0
2018-04-23T00:32:02.666Z,0
2018-04-23T00:33:12.905Z,0
2018-04-23T00:34:23.132Z,0
2018-04-23T00:35:33.473Z,0
2018-04-23T00:36:43.705Z,0
2018-04-23T00:37:53.853Z,0
2018-04-23T00:39:04.063Z,0
2018-04-23T00:40:14.264Z,0
2018-04-23T00:41:24.474Z,0
2018-04-23T00:42:34.639Z,0
2018-04-23T00:43:45.878Z,0
2018-04-23T00:44:56.048Z,0
2018-04-23T00:46:06.193Z,0
2018-04-23T00:47:16.381Z,0
2018-04-23T00:48:26.508Z,0
2018-04-23T00:49:36.391Z,0
2018-04-23T00:50:46.440Z,0
2018-04-23T00:51:56.563Z,0
2018-04-23T00:53:06.704Z,0
2018-04-23T00:54:16.883Z,0
2018-04-23T00:55:26.846Z,0
2018-04-23T00:56:36.758Z,0
2018-04-23T00:57:46.985Z,0
2018-04-23T00:58:57.167Z,0
2018-04-23T01:00:07.302Z,0
2018-04-23T01:01:17.480Z,0
2018-04-23T01:02:27.256Z,0
2018-04-23T01:03:37.390Z,0
2018-04-23T01:04:47.531Z,0
2018-04-23T01:05:57.656Z,0
2018-04-23T01:07:07.866Z,0
2018-04-23T01:08:18.065Z,0
2018-04-23T01:09:28.305Z,0
2018-04-23T01:10:38.535Z,0
2018-04-23T01:11:48.477Z,0
2018-04-23T01:12:58.609Z,0
2018-04-23T01:14:08.499Z,0
2018-04-23T01:15:18.424Z,0
2018-04-23T01:16:28.619Z,0
2018-04-23T01:17:38.793Z,0
2018-04-23T01:18:48.948Z,0
2018-04-23T01:19:59.063Z,0
2018-04-23T01:21:09.216Z,0
2018-04-23T01:22:19.449Z,0
2018-04-23T01:23:29.684Z,0
2018-04-23T01:24:39.567Z,0
2018-04-23T01:25:49.710Z,0
2018-04-23T01:26:59.484Z,0
2018-04-23T01:28:09.648Z,0
2018-04-23T01:29:19.836Z,0
2018-04-23T01:30:30.027Z,0
2018-04-23T01:31:40.232Z,0
2018-04-23T01:32:50.480Z,0
2018-04-23T01:34:00.619Z,0
2018-04-23T01:35:10.315Z,0
2018-04-23T01:36:20.540Z,0
2018-04-23T01:37:30.685Z,0
2018-04-23T01:38:40.325Z,0
2018-04-23T01:39:50.482Z,0
2018-04-23T01:41:00.613Z,0
2018-04-23T01:42:10.758Z,0
2018-04-23T01:43:20.895Z,0
2018-04-23T01:44:30.783Z,0
2018-04-23T01:45:40.875Z,0
2018-04-23T01:46:51.033Z,0
2018-04-23T01:48:01.302Z,0
2018-04-23T01:49:11.548Z,0
2018-04-23T01:50:21.780Z,0
2018-04-23T01:51:32.192Z,0
2018-04-23T01:52:42.394Z,0
2018-04-23T01:53:52.577Z,0
2018-04-23T01:55:02.721Z,0
2018-04-23T01:56:12.491Z,0
2018-04-23T01:57:22.709Z,0
2018-04-23T01:58:32.845Z,0
2018-04-23T01:59:42.999Z,0
2018-04-23T02:00:53.166Z,0
2018-04-23T02:02:03.085Z,0
2018-04-23T02:03:13.310Z,0
2018-04-23T02:04:23.445Z,0
2018-04-23T02:05:33.219Z,0
2018-04-23T02:06:43.363Z,0
2018-04-23T02:07:53.248Z,0
2018-04-23T02:09:03.404Z,0
2018-04-23T02:10:13.608Z,0
2018-04-23T02:11:23.865Z,0
2018-04-23T02:12:34.068Z,0
2018-04-23T02:13:44.297Z,0
2018-04-23T02:14:54.538Z,0
2018-04-23T02:16:04.760Z,0
2018-04-23T02:17:14.970Z,0
2018-04-23T02:18:25.197Z,0
2018-04-23T02:19:35.383Z,0
2018-04-23T02:20:45.534Z,0
2018-04-23T02:21:55.744Z,0
2018-04-23T02:23:06.049Z,0
2018-04-23T02:24:16.293Z,0
2018-04-23T02:25:26.428Z,0
2018-04-23T02:26:36.681Z,0
2018-04-23T02:27:46.874Z,0
2018-04-23T02:28:56.842Z,0
2018-04-23T02:32:34.606Z,0
2018-04-23T02:33:44.779Z,0
2018-04-23T02:34:54.943Z,0
2018-04-23T02:36:05.118Z,0
2018-04-23T02:37:15.279Z,0
2018-04-23T02:38:25.419Z,0
2018-04-23T02:39:35.609Z,0
2018-04-23T02:40:45.834Z,0
2018-04-23T02:41:55.993Z,0
2018-04-23T02:43:08.254Z,0
2018-04-23T02:44:18.399Z,0
2018-04-23T02:45:28.562Z,0
2018-04-23T02:46:38.732Z,0
2018-04-23T02:47:48.658Z,0
2018-04-23T02:49:01.456Z,0
2018-04-23T02:50:11.641Z,0
2018-04-23T02:51:21.815Z,0
2018-04-23T02:52:32.001Z,0
2018-04-23T02:53:42.161Z,0
2018-04-23T02:54:52.325Z,0
2018-04-23T02:56:02.194Z,0
2018-04-23T02:57:12.330Z,0
2018-04-23T02:58:22.470Z,0
2018-04-23T02:59:32.685Z,0
2018-04-23T03:00:42.857Z,0
2018-04-23T03:01:52.788Z,0
2018-04-23T03:03:02.930Z,0
2018-04-23T03:04:13.102Z,0
2018-04-23T03:05:23.237Z,0
2018-04-23T03:06:33.519Z,0
2018-04-23T03:07:43.684Z,0
2018-04-23T03:08:53.821Z,0
2018-04-23T03:10:09.767Z,0
2018-04-23T03:11:19.956Z,0
2018-04-23T03:12:30.087Z,0
2018-04-23T03:13:40.261Z,0
2018-04-23T03:14:50.423Z,0
2018-04-23T03:16:00.609Z,0
2018-04-23T03:17:10.835Z,0
2018-04-23T03:18:20.994Z,0
2018-04-23T03:19:31.179Z,0
2018-04-23T03:20:41.289Z,0
2018-04-23T03:21:51.438Z,0
2018-04-23T03:23:01.628Z,0
2018-04-23T03:24:11.780Z,0
2018-04-23T03:25:21.923Z,0
2018-04-23T03:26:32.069Z,0
2018-04-23T03:27:41.998Z,0
2018-04-23T03:28:52.279Z,0
2018-04-23T03:30:02.437Z,0
2018-04-23T03:31:12.651Z,0
2018-04-23T03:32:22.797Z,0
2018-04-23T03:33:32.983Z,0
2018-04-23T03:34:43.168Z,0
2018-04-23T03:35:53.415Z,0
2018-04-23T03:37:03.605Z,0
2018-04-23T03:38:13.936Z,0
2018-04-23T03:39:24.102Z,0
2018-04-23T03:40:34.289Z,0
2018-04-23T03:41:44.594Z,0
2018-04-23T03:42:54.779Z,0
2018-04-23T03:44:04.991Z,0
2018-04-23T03:45:15.189Z,0
2018-04-23T03:46:25.349Z,0
2018-04-23T03:47:35.532Z,0
2018-04-23T03:48:45.693Z,0
2018-04-23T03:49:55.850Z,0
2018-04-23T03:51:06.030Z,0
2018-04-23T03:52:15.807Z,0
2018-04-23T03:53:25.941Z,0
2018-04-23T03:54:36.091Z,0
2018-04-23T03:55:46.255Z,0
2018-04-23T03:56:56.092Z,0
2018-04-23T03:58:06.229Z,0
2018-04-23T03:59:16.517Z,0
2018-04-23T04:00:26.715Z,0
2018-04-23T04:01:36.924Z,0
2018-04-23T04:02:47.093Z,5
2018-04-23T04:03:57.347Z,5
2018-04-23T04:05:07.493Z,5
2018-04-23T04:06:17.662Z,5
2018-04-23T04:07:27.996Z,5
2018-04-23T04:08:38.167Z,5
2018-04-23T04:09:48.798Z,5
2018-04-23T04:10:59.263Z,10
2018-04-23T04:12:09.430Z,10
2018-04-23T04:13:19.554Z,10
2018-04-23T04:14:29.780Z,10
2018-04-23T04:15:40.024Z,15
2018-04-23T04:16:50.373Z,15
2018-04-23T04:18:00.555Z,20
2018-04-23T04:19:10.704Z,25
2018-04-23T04:20:20.932Z,25
2018-04-23T04:21:31.132Z,30
2018-04-23T04:22:41.001Z,35
2018-04-23T04:23:51.146Z,35
2018-04-23T04:25:01.330Z,45
2018-04-23T04:26:11.499Z,50
2018-04-23T04:27:21.699Z,40
2018-04-23T04:28:31.911Z,20
2018-04-23T04:29:42.119Z,10
2018-04-23T04:30:52.294Z,10
2018-04-23T04:32:02.461Z,15
2018-04-23T04:33:12.428Z,20
2018-04-23T04:34:22.631Z,15
2018-04-23T04:35:32.975Z,10
2018-04-23T04:36:43.196Z,5
2018-04-23T04:37:53.100Z,0
2018-04-23T04:39:03.297Z,0
2018-04-23T04:40:13.447Z,0
2018-04-23T04:41:23.581Z,0
2018-04-23T04:42:33.732Z,0
2018-04-23T04:43:43.935Z,0
2018-04-23T04:44:54.106Z,0
2018-04-23T04:46:04.252Z,0
2018-04-23T04:47:14.527Z,0
2018-04-23T04:48:24.789Z,0
2018-04-23T04:49:34.960Z,0
2018-04-23T04:50:45.206Z,0
2018-04-23T04:51:55.365Z,0
2018-04-23T04:53:05.545Z,0
2018-04-23T04:54:15.830Z,5
2018-04-23T04:55:25.998Z,5
2018-04-23T04:56:36.178Z,5
2018-04-23T04:57:46.330Z,10
2018-04-23T04:58:56.474Z,10
2018-04-23T05:00:06.646Z,15
2018-04-23T05:01:16.803Z,15
2018-04-23T05:02:26.603Z,15
2018-04-23T05:03:36.744Z,15
2018-04-23T05:04:46.906Z,15
2018-04-23T05:05:56.942Z,15
2018-04-23T05:07:07.317Z,15
2018-04-23T05:08:17.517Z,20
2018-04-23T05:09:27.802Z,20
2018-04-23T05:10:38.057Z,25
2018-04-23T05:11:48.319Z,30
2018-04-23T05:12:58.455Z,30
2018-04-23T05:14:08.646Z,30
2018-04-23T05:15:18.976Z,25
2018-04-23T05:16:29.176Z,20
2018-04-23T05:17:39.334Z,25
2018-04-23T05:18:49.506Z,30
2018-04-23T05:19:59.699Z,30
2018-04-23T05:21:09.993Z,30
2018-04-23T05:22:20.159Z,25
2018-04-23T05:23:30.287Z,30
2018-04-23T05:24:40.424Z,30
2018-04-23T05:25:50.620Z,40
2018-04-23T05:27:00.784Z,50
2018-04-23T05:28:10.995Z,60
2018-04-23T05:29:21.146Z,70
2018-04-23T05:30:31.271Z,80
2018-04-23T05:31:41.103Z,85
2018-04-23T05:32:51.007Z,75
2018-04-23T05:34:01.151Z,75
2018-04-23T05:35:11.294Z,75
2018-04-23T05:36:21.499Z,85
2018-04-23T05:37:31.824Z,95
2018-04-23T05:38:41.972Z,110
2018-04-23T05:39:52.206Z,115
2018-04-23T05:41:03.320Z,125
2018-04-23T05:42:13.490Z,130
2018-04-23T05:43:23.739Z,130
2018-04-23T05:44:33.958Z,145
2018-04-23T05:45:44.240Z,155
2018-04-23T05:46:54.504Z,150
2018-04-23T05:48:04.791Z,165
2018-04-23T05:49:15.070Z,165
2018-04-23T05:50:25.205Z,180
2018-04-23T05:51:35.353Z,180
2018-04-23T05:52:45.175Z,180
2018-04-23T05:53:55.332Z,185
2018-04-23T05:55:05.758Z,175
2018-04-23T05:56:15.959Z,175
2018-04-23T05:57:26.106Z,170
2018-04-23T05:58:36.281Z,175
2018-04-23T05:59:46.422Z,195
2018-04-23T06:00:56.562Z,210
2018-04-23T06:02:06.760Z,190
2018-04-23T06:03:17.011Z,185
2018-04-23T06:04:27.347Z,180
2018-04-23T06:05:37.509Z,175
2018-04-23T06:06:47.712Z,175
2018-04-23T06:07:57.874Z,175
2018-04-23T06:09:08.101Z,185
2018-04-23T06:10:18.063Z,195
2018-04-23T06:11:28.238Z,190
2018-04-23T06:12:38.395Z,185
2018-04-23T06:13:48.682Z,190
2018-04-23T06:14:58.888Z,200
2018-04-23T06:16:09.052Z,220
2018-04-23T06:17:19.263Z,210
2018-04-23T06:18:29.430Z,210
2018-04-23T06:19:39.700Z,195
2018-04-23T06:20:49.859Z,195
2018-04-23T06:22:00.052Z,205
2018-04-23T06:23:09.968Z,210
2018-04-23T06:24:20.130Z,220
2018-04-23T06:25:30.305Z,240
2018-04-23T06:26:40.472Z,255
2018-04-23T06:27:50.625Z,270
2018-04-23T06:29:00.567Z,285
2018-04-23T06:30:10.796Z,295
2018-04-23T06:31:21.046Z,325
2018-04-23T06:32:30.973Z,320
2018-04-23T06:33:41.223Z,315
2018-04-23T06:34:51.405Z,300
2018-04-23T06:36:01.569Z,290
2018-04-23T06:37:11.735Z,280
2018-04-23T06:38:21.877Z,270
2018-04-23T06:39:32.017Z,270
2018-04-23T06:40:42.159Z,260
2018-04-23T06:41:52.437Z,245
2018-04-23T06:43:02.649Z,250
2018-04-23T06:44:12.520Z,255
2018-04-23T06:45:22.717Z,270
2018-04-23T06:46:32.966Z,295
2018-04-23T06:47:43.174Z,315
2018-04-23T06:48:53.319Z,330
2018-04-23T06:50:03.524Z,345
2018-04-23T06:51:13.714Z,355
2018-04-23T06:52:23.647Z,360
2018-04-23T06:53:33.805Z,375
2018-04-23T06:54:43.970Z,385
2018-04-23T06:55:54.149Z,400
2018-04-23T06:57:04.304Z,405
2018-04-23T06:58:14.501Z,415
2018-04-23T06:59:24.664Z,415
2018-04-23T07:00:34.821Z,405
2018-04-23T07:01:45.001Z,390
2018-04-23T07:02:55.166Z,400
2018-04-23T07:04:05.324Z,395
2018-04-23T07:05:15.810Z,395
2018-04-23T07:06:26.053Z,375
2018-04-23T07:07:36.241Z,335
2018-04-23T07:08:46.560Z,295
2018-04-23T07:09:56.761Z,245
2018-04-23T07:11:06.912Z,200
2018-04-23T07:12:17.203Z,165
2018-04-23T07:13:27.377Z,140
2018-04-23T07:14:37.774Z,130
2018-04-23T07:15:47.923Z,125
2018-04-23T07:16:58.228Z,120
2018-04-23T07:18:08.408Z,120
2018-04-23T07:19:18.638Z,110
2018-04-23T07:20:28.771Z,105
2018-04-23T07:21:38.974Z,100
2018-04-23T07:22:50.105Z,100
2018-04-23T07:24:00.303Z,100
2018-04-23T07:25:10.613Z,105
2018-04-23T07:26:20.751Z,110
2018-04-23T07:27:30.880Z,120
2018-04-23T07:28:41.052Z,125
2018-04-23T07:29:51.184Z,130
2018-04-23T07:31:01.359Z,125
2018-04-23T07:32:11.556Z,120
2018-04-23T07:33:21.706Z,115
2018-04-23T07:34:31.879Z,115
2018-04-23T07:35:42.138Z,115
2018-04-23T07:36:52.363Z,115
2018-04-23T07:38:02.763Z,115
2018-04-23T07:39:13.257Z,120
2018-04-23T07:40:23.533Z,130
2018-04-23T07:41:33.795Z,135
2018-04-23T07:42:43.688Z,145
2018-04-23T07:43:53.888Z,150
2018-04-23T07:45:04.059Z,145
2018-04-23T07:46:14.227Z,135
2018-04-23T07:47:24.412Z,120
2018-04-23T07:48:34.551Z,115
2018-04-23T07:49:44.715Z,105
2018-04-23T07:50:55.031Z,100
2018-04-23T07:52:05.308Z,95
2018-04-23T07:53:15.510Z,95
2018-04-23T07:54:25.609Z,90
2018-04-23T07:55:35.874Z,90
2018-04-23T07:56:46.113Z,90
2018-04-23T07:57:56.529Z,95
2018-04-23T07:59:07.664Z,100
2018-04-23T08:00:17.817Z,110
2018-04-23T08:01:28.005Z,125
2018-04-23T08:02:38.270Z,130
2018-04-23T08:03:48.434Z,140
2018-04-23T08:04:58.771Z,145
2018-04-23T08:06:08.935Z,140
2018-04-23T08:07:19.194Z,135
2018-04-23T08:08:29.415Z,135
2018-04-23T08:09:39.597Z,140
2018-04-23T08:10:49.797Z,155
2018-04-23T08:12:00.011Z,165
2018-04-23T08:13:10.263Z,165
2018-04-23T08:14:20.427Z,155
2018-04-23T08:15:30.661Z,145
2018-04-23T08:16:41.005Z,140
2018-04-23T08:17:51.229Z,145
2018-04-23T08:19:01.115Z,160
2018-04-23T08:20:11.255Z,165
2018-04-23T08:21:21.399Z,180
2018-04-23T08:22:31.577Z,190
2018-04-23T08:23:41.848Z,190
2018-04-23T08:24:51.830Z,185
2018-04-23T08:26:02.061Z,175
2018-04-23T08:27:13.304Z,170
2018-04-23T08:28:23.466Z,170
2018-04-23T08:29:33.645Z,180
2018-04-23T08:30:43.875Z,175
2018-04-23T08:31:54.169Z,170
2018-04-23T08:33:04.359Z,170
2018-04-23T08:34:14.595Z,175
2018-04-23T08:35:24.828Z,190
2018-04-23T08:36:35.009Z,210
2018-04-23T08:37:45.307Z,235
2018-04-23T08:38:55.586Z,260
2018-04-23T08:40:05.881Z,260
2018-04-23T08:41:15.890Z,250
2018-04-23T08:42:26.056Z,225
2018-04-23T08:43:36.446Z,205
2018-04-23T08:44:46.701Z,225
2018-04-23T08:45:56.872Z,250
2018-04-23T08:47:07.013Z,250
2018-04-23T08:48:17.376Z,245
2018-04-23T08:49:27.567Z,235
2018-04-23T08:50:37.937Z,225
2018-04-23T08:51:49.119Z,225
2018-04-23T08:52:58.909Z,235
2018-04-23T08:54:09.062Z,260
2018-04-23T08:55:19.298Z,315
2018-04-23T08:56:29.533Z,375
2018-04-23T08:57:39.702Z,405
2018-04-23T08:58:49.953Z,390
2018-04-23T09:00:00.222Z,415
2018-04-23T09:01:10.395Z,415
2018-04-23T09:02:20.654Z,390
2018-04-23T09:03:30.600Z,385
2018-04-23T09:04:40.750Z,390
2018-04-23T09:05:50.950Z,400
2018-04-23T09:07:01.136Z,370
2018-04-23T09:08:11.306Z,360
2018-04-23T09:09:21.717Z,335
2018-04-23T09:10:31.914Z,330
2018-04-23T09:11:41.857Z,340
2018-04-23T09:12:52.099Z,345
2018-04-23T09:14:02.299Z,340
2018-04-23T09:15:12.874Z,335
2018-04-23T09:16:24.753Z,320
2018-04-23T09:17:35.646Z,305
2018-04-23T09:18:46.942Z,315
2018-04-23T09:19:57.767Z,330
2018-04-23T09:21:08.371Z,355
2018-04-23T09:22:18.949Z,395
2018-04-23T09:23:29.479Z,420
2018-04-23T09:24:39.659Z,405
2018-04-23T09:25:49.897Z,385
2018-04-23T09:26:59.688Z,360
2018-04-23T09:28:09.903Z,345
2018-04-23T09:29:19.793Z,360
2018-04-23T09:30:30.009Z,390
2018-04-23T09:31:40.331Z,435
2018-04-23T09:32:50.530Z,480
2018-04-23T09:34:00.673Z,545
2018-04-23T09:35:10.873Z,630
2018-04-23T09:36:21.269Z,750
2018-04-23T09:37:31.466Z,915
2018-04-23T09:38:41.604Z,1305
2018-04-23T09:39:51.603Z,1930
2018-04-23T09:41:01.901Z,2605
2018-04-23T09:42:12.146Z,1845
2018-04-23T09:43:22.323Z,2195
2018-04-23T09:44:32.853Z,1940
2018-04-23T09:45:43.193Z,2355
2018-04-23T09:46:53.047Z,2315
2018-04-23T09:48:03.229Z,1565
2018-04-23T09:49:13.189Z,2390
2018-04-23T09:50:23.375Z,2260
2018-04-23T09:51:33.543Z,2425
2018-04-23T09:52:43.692Z,1835
2018-04-23T09:53:53.726Z,2545
2018-04-23T09:55:03.941Z,2670
2018-04-23T09:56:14.240Z,2680
2018-04-23T09:57:24.462Z,2810
2018-04-23T09:58:37.151Z,1970
2018-04-23T09:59:47.514Z,2345
2018-04-23T10:00:57.686Z,2475
2018-04-23T10:02:07.892Z,2535
2018-04-23T10:03:18.084Z,2800
2018-04-23T10:04:28.265Z,2670
2018-04-23T10:05:38.480Z,2675
2018-04-23T10:06:48.683Z,2510
2018-04-23T10:07:58.969Z,2315
2018-04-23T10:09:09.186Z,2315
2018-04-23T10:10:19.358Z,2430
2018-04-23T10:11:29.558Z,2500
2018-04-23T10:12:39.569Z,2350
2018-04-23T10:13:49.732Z,2465
2018-04-23T10:14:59.981Z,2510
2018-04-23T10:16:10.156Z,2485
2018-04-23T10:17:20.366Z,2710
2018-04-23T10:18:30.524Z,2725
2018-04-23T10:19:40.493Z,2930
2018-04-23T10:20:50.697Z,3005
2018-04-23T10:22:00.996Z,3030
2018-04-23T10:23:11.254Z,2875
2018-04-23T10:24:21.425Z,2940
2018-04-23T10:25:31.597Z,2985
2018-04-23T10:26:41.767Z,2915
2018-04-23T10:27:51.982Z,3100
2018-04-23T10:29:02.162Z,3035
2018-04-23T10:30:12.369Z,2980
2018-04-23T10:31:23.554Z,2835
2018-04-23T10:32:33.745Z,2000
2018-04-23T10:33:43.916Z,2885
2018-04-23T10:34:54.154Z,2965
2018-04-23T10:36:04.322Z,2865
2018-04-23T10:37:14.511Z,3120
2018-04-23T10:38:24.719Z,2965
2018-04-23T10:39:34.896Z,3215
2018-04-23T10:40:45.087Z,3165
2018-04-23T10:41:55.325Z,2965
2018-04-23T10:43:05.612Z,2995
2018-04-23T10:44:15.825Z,2950
2018-04-23T10:45:26.154Z,3065
2018-04-23T10:46:36.038Z,3115
2018-04-23T10:47:46.373Z,3080
2018-04-23T10:48:56.691Z,3095
2018-04-23T10:50:06.903Z,2935
2018-04-23T10:51:17.128Z,2730
2018-04-23T10:52:27.318Z,2810
2018-04-23T10:53:37.586Z,2690
2018-04-23T10:54:47.794Z,1480
2018-04-23T10:55:58.022Z,2115
2018-04-23T10:57:07.842Z,2155
2018-04-23T10:58:18.045Z,940
2018-04-23T10:59:28.233Z,1035
2018-04-23T11:00:38.474Z,2780
2018-04-23T11:01:48.732Z,915
2018-04-23T11:02:58.910Z,1160
2018-04-23T11:04:09.099Z,1110
2018-04-23T11:05:19.268Z,810
2018-04-23T11:06:29.447Z,1580
2018-04-23T11:07:39.602Z,2835
2018-04-23T11:08:49.809Z,2240
2018-04-23T11:10:00.126Z,975
2018-04-23T11:11:10.344Z,1205
2018-04-23T11:12:20.627Z,865
2018-04-23T11:13:30.807Z,1580
2018-04-23T11:14:41.023Z,2530
2018-04-23T11:15:51.407Z,1390
2018-04-23T11:17:01.642Z,1760
2018-04-23T11:18:11.838Z,2190
2018-04-23T11:19:21.990Z,2760
2018-04-23T11:20:32.183Z,2870
2018-04-23T11:21:42.424Z,3015
2018-04-23T11:22:52.594Z,2825
2018-04-23T11:24:02.806Z,2740
2018-04-23T11:25:12.624Z,2620
2018-04-23T11:26:22.810Z,2775
2018-04-23T11:27:33.028Z,2740
2018-04-23T11:28:43.271Z,2865
2018-04-23T11:29:53.485Z,1965
2018-04-23T11:31:03.700Z,725
2018-04-23T11:32:13.623Z,1825
2018-04-23T11:33:23.791Z,2170
2018-04-23T11:34:33.597Z,650
2018-04-23T11:35:43.794Z,595
2018-04-23T11:36:53.756Z,640
2018-04-23T11:38:03.757Z,1430
2018-04-23T11:39:13.921Z,800
2018-04-23T11:40:24.092Z,815
2018-04-23T11:41:34.290Z,2650
2018-04-23T11:42:44.241Z,1120
2018-04-23T11:43:54.425Z,1040
2018-04-23T11:45:04.712Z,825
2018-04-23T11:46:14.588Z,1120
2018-04-23T11:47:24.779Z,1080
2018-04-23T11:48:34.978Z,765
2018-04-23T11:49:45.290Z,1020
2018-04-23T11:50:55.530Z,3020
2018-04-23T11:52:05.735Z,940
2018-04-23T11:53:16.114Z,1865
2018-04-23T11:54:26.299Z,685
2018-04-23T11:55:36.465Z,585
2018-04-23T11:56:46.635Z,505
2018-04-23T11:57:56.548Z,495
2018-04-23T11:59:06.737Z,615
2018-04-23T12:00:16.905Z,770
2018-04-23T12:01:27.126Z,695
2018-04-23T12:02:37.420Z,2100
2018-04-23T12:03:47.373Z,1575
2018-04-23T12:04:57.551Z,735
2018-04-23T12:06:07.740Z,1235
2018-04-23T12:07:17.899Z,1855
2018-04-23T12:08:28.100Z,2135
2018-04-23T12:09:38.281Z,1640
2018-04-23T12:10:48.522Z,1310
2018-04-23T12:11:58.739Z,1385
2018-04-23T12:13:08.658Z,1530
2018-04-23T12:14:18.634Z,1445
2018-04-23T12:15:28.536Z,1015
2018-04-23T12:16:38.506Z,1620
2018-04-23T12:17:48.797Z,1215
2018-04-23T12:18:58.972Z,1810
2018-04-23T12:20:09.172Z,2215
2018-04-23T12:21:19.335Z,2395
2018-04-23T12:22:29.584Z,2395
2018-04-23T12:23:39.833Z,2320
2018-04-23T12:24:50.070Z,2105
2018-04-23T12:26:00.261Z,2050
2018-04-23T12:27:10.459Z,1435
2018-04-23T12:28:20.655Z,1135
2018-04-23T12:29:30.826Z,1530
2018-04-23T12:30:40.734Z,2095
2018-04-23T12:31:50.979Z,1930
2018-04-23T12:33:01.126Z,2005
2018-04-23T12:34:11.279Z,1530
2018-04-23T12:35:21.499Z,1295
2018-04-23T12:36:31.664Z,1010
2018-04-23T12:37:41.481Z,1550
2018-04-23T12:38:51.657Z,1695
2018-04-23T12:40:01.972Z,1585
2018-04-23T12:41:12.205Z,2800
2018-04-23T12:42:22.422Z,1460
2018-04-23T12:43:32.590Z,1890
2018-04-23T12:44:42.817Z,1510
2018-04-23T12:45:53.155Z,1425
2018-04-23T12:47:03.333Z,1115
2018-04-23T12:48:13.554Z,1270
2018-04-23T12:49:23.731Z,1305
2018-04-23T12:50:33.969Z,1050
2018-04-23T12:51:44.224Z,1385
2018-04-23T12:52:54.473Z,1280
2018-04-23T12:54:04.654Z,1175
2018-04-23T12:55:14.826Z,1545
2018-04-23T12:56:25.172Z,2075
2018-04-23T12:57:35.348Z,2650
2018-04-23T12:58:45.587Z,1700
2018-04-23T12:59:55.828Z,1755
2018-04-23T13:01:06.045Z,1610
2018-04-23T13:02:16.225Z,1385
2018-04-23T13:03:26.430Z,905
2018-04-23T13:04:36.726Z,1150
2018-04-23T13:05:46.941Z,1400
2018-04-23T13:06:58.117Z,1175
2018-04-23T13:08:08.350Z,1750
2018-04-23T13:09:18.522Z,1685
2018-04-23T13:10:28.461Z,1645
2018-04-23T13:11:38.664Z,1600
2018-04-23T13:12:48.870Z,1435
2018-04-23T13:13:59.023Z,1395
2018-04-23T13:15:09.199Z,1780
2018-04-23T13:16:19.213Z,2375
2018-04-23T13:17:29.442Z,2325
2018-04-23T13:18:39.741Z,2105
2018-04-23T13:19:49.936Z,1635
2018-04-23T13:21:00.141Z,1730
2018-04-23T13:22:10.345Z,545
2018-04-23T13:23:20.577Z,400
2018-04-23T13:24:30.855Z,410
2018-04-23T13:25:41.075Z,505
2018-04-23T13:26:51.012Z,750
2018-04-23T13:28:01.188Z,1590
2018-04-23T13:29:11.354Z,1360
2018-04-23T13:30:21.516Z,1495
2018-04-23T13:31:31.693Z,1235
2018-04-23T13:32:41.892Z,1275
2018-04-23T13:33:52.147Z,1295
2018-04-23T13:35:02.416Z,1715
2018-04-23T13:36:12.665Z,1485
2018-04-23T13:37:22.969Z,1330
2018-04-23T13:38:33.206Z,1510
2018-04-23T13:39:43.370Z,1635
2018-04-23T13:40:53.589Z,1520
2018-04-23T13:42:03.787Z,1500
2018-04-23T13:43:13.974Z,1690
2018-04-23T13:44:24.132Z,1530
2018-04-23T13:45:33.892Z,1165
2018-04-23T13:46:44.064Z,1050
2018-04-23T13:47:54.282Z,1145
2018-04-23T13:49:04.484Z,1015
2018-04-23T13:50:14.868Z,850
2018-04-23T13:51:25.133Z,1295
2018-04-23T13:52:35.138Z,1160
2018-04-23T13:53:45.367Z,740
2018-04-23T13:54:55.594Z,575
2018-04-23T13:56:05.776Z,700
2018-04-23T13:57:15.954Z,950
2018-04-23T13:58:26.249Z,875
2018-04-23T13:59:36.464Z,1100
2018-04-23T14:00:46.710Z,1145
2018-04-23T14:01:56.956Z,740
2018-04-23T14:03:07.253Z,760
2018-04-23T14:04:17.508Z,930
2018-04-23T14:05:27.702Z,855
2018-04-23T14:06:37.900Z,775
2018-04-23T14:07:48.103Z,875
2018-04-23T14:08:58.281Z,765
2018-04-23T14:10:08.453Z,915
2018-04-23T14:11:18.714Z,935
2018-04-23T14:12:28.988Z,1280
2018-04-23T14:13:39.214Z,1325
2018-04-23T14:14:49.427Z,625
2018-04-23T14:15:59.647Z,585
2018-04-23T14:17:09.838Z,1175
2018-04-23T14:18:20.025Z,1125
2018-04-23T14:19:30.240Z,1030
2018-04-23T14:20:40.422Z,945
2018-04-23T14:21:50.681Z,1415
2018-04-23T14:23:00.972Z,1300
2018-04-23T14:24:11.481Z,1195
2018-04-23T14:25:21.758Z,615
2018-04-23T14:26:32.032Z,480
2018-04-23T14:27:42.414Z,550
2018-04-23T14:28:52.592Z,485
2018-04-23T14:30:02.859Z,650
2018-04-23T14:31:12.771Z,1050
2018-04-23T14:32:22.952Z,900
2018-04-23T14:33:33.134Z,835
2018-04-23T14:34:43.350Z,710
2018-04-23T14:35:53.523Z,775
2018-04-23T14:37:03.438Z,925
2018-04-23T14:38:13.644Z,545
2018-04-23T14:39:23.876Z,1600
2018-04-23T14:40:33.939Z,1570
2018-04-23T14:41:44.148Z,1620
2018-04-23T14:42:54.353Z,1705
2018-04-23T14:44:04.541Z,1645
2018-04-23T14:45:14.737Z,1575
2018-04-23T14:46:24.958Z,1735
2018-04-23T14:47:35.201Z,915
2018-04-23T14:48:45.393Z,430
2018-04-23T14:49:55.623Z,395
2018-04-23T14:51:05.303Z,380
2018-04-23T14:52:15.574Z,1555
2018-04-23T14:53:25.760Z,525
2018-04-23T14:54:35.950Z,1330
2018-04-23T14:55:46.179Z,1475
2018-04-23T14:56:56.370Z,1365
2018-04-23T14:58:06.607Z,1545
2018-04-23T14:59:16.859Z,1275
2018-04-23T15:00:27.059Z,455
2018-04-23T15:01:37.284Z,420
2018-04-23T15:02:47.334Z,1280
2018-04-23T15:03:57.592Z,470
2018-04-23T15:05:07.879Z,1165
2018-04-23T15:06:17.935Z,1210
2018-04-23T15:07:27.847Z,1245
2018-04-23T15:08:37.816Z,1205
2018-04-23T15:09:48.007Z,470
2018-04-23T15:10:58.214Z,1160
2018-04-23T15:12:08.471Z,1135
2018-04-23T15:13:18.688Z,1250
2018-04-23T15:14:28.891Z,800
2018-04-23T15:15:39.156Z,1340
2018-04-23T15:16:49.442Z,1255
2018-04-23T15:17:59.867Z,1275
2018-04-23T15:19:10.074Z,1190
2018-04-23T15:20:20.484Z,740
2018-04-23T15:21:30.713Z,1160
2018-04-23T15:22:40.915Z,1315
2018-04-23T15:23:51.119Z,1335
2018-04-23T15:25:01.448Z,1300
2018-04-23T15:26:11.625Z,1295
2018-04-23T15:27:21.840Z,1330
2018-04-23T15:28:32.025Z,1245
2018-04-23T15:29:42.245Z,1075
2018-04-23T15:30:52.436Z,1030
2018-04-23T15:32:02.684Z,1045
2018-04-23T15:33:12.490Z,1085
2018-04-23T15:34:22.661Z,1110
2018-04-23T15:35:32.854Z,1095
2018-04-23T15:36:43.077Z,1075
2018-04-23T15:37:53.530Z,860
2018-04-23T15:39:03.792Z,530
2018-04-23T15:40:14.165Z,435
2018-04-23T15:41:24.391Z,400
2018-04-23T15:42:34.681Z,375
2018-04-23T15:43:44.899Z,360
2018-04-23T15:44:55.254Z,335
2018-04-23T15:46:05.269Z,325
2018-04-23T15:47:15.621Z,320
2018-04-23T15:48:25.817Z,315
2018-04-23T15:49:36.013Z,305
2018-04-23T15:50:46.203Z,305
2018-04-23T15:51:56.379Z,290
2018-04-23T15:53:06.716Z,290
2018-04-23T15:54:16.949Z,290
2018-04-23T15:55:27.181Z,290
2018-04-23T15:56:37.345Z,280
2018-04-23T15:57:47.519Z,270
2018-04-23T15:58:57.747Z,265
2018-04-23T16:00:07.936Z,260
2018-04-23T16:01:17.860Z,255
2018-04-23T16:02:28.012Z,255
2018-04-23T16:03:38.186Z,250
2018-04-23T16:04:48.163Z,250
2018-04-23T16:05:58.463Z,190
2018-04-23T16:07:08.364Z,235
2018-04-23T16:08:18.160Z,240
2018-04-23T16:09:28.361Z,240
2018-04-23T16:10:38.509Z,235
2018-04-23T16:11:48.684Z,240
2018-04-23T16:12:58.592Z,240
2018-04-23T16:14:08.778Z,235
2018-04-23T16:15:18.987Z,230
2018-04-23T16:16:29.238Z,225
2018-04-23T16:17:39.430Z,220
2018-04-23T16:18:49.628Z,215
2018-04-23T16:19:59.810Z,210